createdAt,value
2022-12-28T00:02:15.708Z,6.97
2022-12-28T00:04:43.833Z,9.40
2022-12-28T00:07:11.988Z,9.20
2022-12-28T00:09:41.541Z,6.87
2022-12-28T00:12:10.074Z,7.53
2022-12-28T00:14:38.350Z,8.70
2022-12-28T00:17:06.532Z,8.07
2022-12-28T00:19:34.789Z,5.73
2022-12-28T00:22:02.921Z,6.17
2022-12-28T00:24:31.049Z,6.87
2022-12-28T00:27:00.714Z,6.60
2022-12-28T00:29:28.987Z,4.97
2022-12-28T00:31:57.390Z,4.90
2022-12-28T00:34:25.727Z,6.97
2022-12-28T00:37:08.747Z,7.73
2022-12-28T00:39:39.667Z,5.23
2022-12-28T00:42:09.858Z,8.80
2022-12-28T00:44:38.645Z,7.53
2022-12-28T00:47:07.111Z,6.43
2022-12-28T00:49:35.500Z,5.17
2022-12-28T00:52:03.725Z,6.43
2022-12-28T00:54:31.929Z,6.07
2022-12-28T00:57:00.129Z,5.97
2022-12-28T00:59:29.663Z,4.70
2022-12-28T01:01:57.968Z,6.10
2022-12-28T01:04:26.285Z,9.10
2022-12-28T01:06:54.516Z,5.70
2022-12-28T01:09:23.070Z,5.23
2022-12-28T01:11:51.332Z,7.40
2022-12-28T01:14:19.525Z,7.90
2022-12-28T01:16:49.538Z,9.70
2022-12-28T01:19:21.284Z,10.97
2022-12-28T01:21:50.405Z,11.03
2022-12-28T01:24:19.248Z,14.83
2022-12-28T01:26:47.410Z,17.43
2022-12-28T01:29:15.617Z,20.80
2022-12-28T01:31:43.913Z,19.20
2022-12-28T01:34:15.383Z,15.83
2022-12-28T01:36:47.431Z,14.87
2022-12-28T01:39:15.586Z,11.17
2022-12-28T01:41:44.211Z,13.13
2022-12-28T01:44:44.003Z,11.73
2022-12-28T01:47:16.780Z,13.47
2022-12-28T01:49:52.645Z,11.53
2022-12-28T01:52:25.604Z,10.03
2022-12-28T01:54:57.814Z,10.40
2022-12-28T01:57:30.786Z,11.93
2022-12-28T02:00:04.102Z,10.07
2022-12-28T02:02:42.478Z,10.30
2022-12-28T02:05:12.976Z,11.30
2022-12-28T02:07:46.785Z,13.10
2022-12-28T02:10:43.732Z,10.67
2022-12-28T02:13:06.366Z,10.43
2022-12-28T02:15:34.675Z,10.03
2022-12-28T02:18:03.796Z,9.73
2022-12-28T02:20:42.882Z,12.67
2022-12-28T02:23:41.615Z,8.70
2022-12-28T02:26:39.867Z,10.67
2022-12-28T02:29:36.854Z,11.03
2022-12-28T02:32:15.880Z,9.67
2022-12-28T02:34:49.855Z,9.27
2022-12-28T02:37:22.536Z,13.10
2022-12-28T02:39:56.382Z,7.87
2022-12-28T02:42:27.562Z,8.87
2022-12-28T02:45:14.619Z,5.97
2022-12-28T02:48:03.009Z,8.80
2022-12-28T02:50:41.607Z,7.07
2022-12-28T02:53:34.579Z,7.60
2022-12-28T02:56:15.756Z,6.87
2022-12-28T02:59:20.375Z,7.60
2022-12-28T03:02:20.272Z,6.83
2022-12-28T03:05:09.041Z,9.63
2022-12-28T03:08:04.127Z,5.73
2022-12-28T03:10:38.366Z,6.37
2022-12-28T03:13:32.303Z,7.03
2022-12-28T03:16:08.047Z,6.97
2022-12-28T03:18:56.656Z,8.00
2022-12-28T03:21:46.566Z,6.63
2022-12-28T03:24:35.839Z,6.20
2022-12-28T03:27:28.125Z,7.43
2022-12-28T03:30:20.399Z,6.87
2022-12-28T03:32:50.341Z,6.20
2022-12-28T03:35:22.246Z,7.00
2022-12-28T03:37:57.820Z,7.90
2022-12-28T03:40:32.685Z,6.00
2022-12-28T03:43:25.234Z,8.03
2022-12-28T03:45:58.925Z,7.30
2022-12-28T03:48:27.963Z,6.17
2022-12-28T03:50:58.235Z,10.00
2022-12-28T03:53:33.545Z,6.03
2022-12-28T03:56:12.951Z,7.23
2022-12-28T03:58:42.601Z,7.67
2022-12-28T04:01:11.273Z,8.43
2022-12-28T04:03:41.622Z,6.47
2022-12-28T04:06:16.115Z,7.37
2022-12-28T04:08:45.161Z,7.67
2022-12-28T04:11:14.068Z,8.33
2022-12-28T04:13:44.702Z,8.97
2022-12-28T04:16:15.844Z,8.53
2022-12-28T04:18:44.942Z,10.00
2022-12-28T04:21:16.641Z,9.10
2022-12-28T04:23:46.470Z,7.20
2022-12-28T04:26:33.966Z,8.73
2022-12-28T04:29:02.653Z,7.23
2022-12-28T04:31:46.338Z,8.00
2022-12-28T04:34:18.458Z,7.17
2022-12-28T04:36:55.496Z,9.23
2022-12-28T04:39:24.371Z,6.27
2022-12-28T04:41:52.826Z,8.33
2022-12-28T04:44:21.030Z,6.77
2022-12-28T04:46:49.203Z,5.87
2022-12-28T04:49:17.494Z,6.60
2022-12-28T04:51:45.731Z,6.90
2022-12-28T04:54:16.299Z,6.67
2022-12-28T04:56:44.598Z,8.00
2022-12-28T04:59:12.936Z,10.47
2022-12-28T05:01:41.528Z,8.43
2022-12-28T05:04:10.282Z,6.17
2022-12-28T05:06:38.467Z,6.80
2022-12-28T05:09:06.690Z,8.40
2022-12-28T05:11:36.224Z,7.87
2022-12-28T05:14:04.559Z,8.43
2022-12-28T05:16:32.728Z,6.73
2022-12-28T05:19:00.925Z,10.70
2022-12-28T05:21:29.966Z,9.63
2022-12-28T05:23:58.942Z,9.53
2022-12-28T05:26:30.045Z,8.63
2022-12-28T05:28:59.967Z,8.73
2022-12-28T05:31:28.333Z,8.67
2022-12-28T05:33:57.019Z,7.80
2022-12-28T05:36:27.315Z,6.67
2022-12-28T05:38:56.830Z,7.43
2022-12-28T05:41:26.965Z,8.90
2022-12-28T05:43:55.980Z,8.07
2022-12-28T05:46:28.483Z,8.77
2022-12-28T05:48:56.871Z,6.60
2022-12-28T05:51:27.233Z,7.20
2022-12-28T05:53:55.439Z,7.60
2022-12-28T05:56:25.463Z,7.77
2022-12-28T05:58:55.523Z,6.53
2022-12-28T06:01:26.401Z,6.83
2022-12-28T06:03:56.077Z,7.03
2022-12-28T06:06:24.806Z,8.43
2022-12-28T06:08:53.219Z,8.90
2022-12-28T06:11:23.121Z,6.77
2022-12-28T06:13:52.080Z,6.97
2022-12-28T06:16:21.956Z,10.80
2022-12-28T06:18:52.565Z,8.53
2022-12-28T06:21:23.189Z,10.23
2022-12-28T06:23:52.222Z,7.20
2022-12-28T06:26:22.564Z,8.27
2022-12-28T06:28:51.742Z,7.97
2022-12-28T06:31:21.195Z,7.37
2022-12-28T06:33:53.849Z,8.40
2022-12-28T06:36:24.646Z,8.03
2022-12-28T06:38:54.535Z,7.53
2022-12-28T06:41:23.496Z,7.10
2022-12-28T06:43:52.402Z,9.57
2022-12-28T06:46:22.351Z,7.47
2022-12-28T06:48:52.294Z,7.23
2022-12-28T06:51:22.452Z,12.53
2022-12-28T06:53:52.191Z,9.10
2022-12-28T06:56:22.239Z,8.23
2022-12-28T06:58:54.480Z,7.77
2022-12-28T07:01:28.598Z,7.83
2022-12-28T07:03:59.552Z,7.13
2022-12-28T07:06:29.796Z,9.93
2022-12-28T07:09:02.377Z,8.13
2022-12-28T07:11:31.035Z,8.07
2022-12-28T07:13:59.306Z,8.43
2022-12-28T07:19:00.507Z,8.50
2022-12-28T07:21:32.392Z,8.67
2022-12-28T07:24:00.742Z,8.70
2022-12-28T07:26:31.041Z,7.33
2022-12-28T07:29:01.558Z,9.03
2022-12-28T07:31:31.684Z,7.33
2022-12-28T07:34:02.082Z,7.90
2022-12-28T07:36:32.833Z,10.67
2022-12-28T07:39:02.359Z,7.10
2022-12-28T07:41:36.382Z,9.07
2022-12-28T07:44:09.175Z,9.27
2022-12-28T07:46:39.969Z,7.57
2022-12-28T07:49:10.145Z,8.00
2022-12-28T07:51:40.298Z,10.03
2022-12-28T07:54:09.354Z,7.17
2022-12-28T07:59:06.361Z,8.70
2022-12-28T08:01:36.533Z,9.17
2022-12-28T08:04:07.550Z,13.33
2022-12-28T08:06:39.773Z,14.53
2022-12-28T08:09:09.942Z,15.23
2022-12-28T08:11:40.373Z,11.80
2022-12-28T08:14:09.469Z,12.23
2022-12-28T08:16:39.952Z,14.97
2022-12-28T08:19:12.242Z,10.00
2022-12-28T08:21:48.194Z,10.50
2022-12-28T08:24:21.762Z,10.67
2022-12-28T08:26:50.847Z,12.13
2022-12-28T08:29:21.302Z,7.43
2022-12-28T08:31:50.076Z,10.37
2022-12-28T08:34:20.828Z,7.67
2022-12-28T08:36:50.486Z,13.37
2022-12-28T08:39:18.674Z,11.60
2022-12-28T08:41:47.056Z,11.17
2022-12-28T08:44:15.312Z,12.50
2022-12-28T08:46:43.686Z,9.40
2022-12-28T08:49:13.217Z,5.70
2022-12-28T08:51:42.629Z,10.17
2022-12-28T08:54:14.890Z,8.43
2022-12-28T08:56:45.564Z,11.37
2022-12-28T08:59:16.988Z,7.00
2022-12-28T09:01:46.355Z,8.20
2022-12-28T09:04:16.924Z,8.37
2022-12-28T09:06:45.257Z,11.10
2022-12-28T09:09:17.460Z,6.23
2022-12-28T09:11:46.743Z,6.93
2022-12-28T09:14:23.092Z,9.67
2022-12-28T09:16:53.178Z,6.43
2022-12-28T09:19:21.806Z,7.57
2022-12-28T09:21:52.670Z,6.47
2022-12-28T09:24:23.014Z,8.37
2022-12-28T09:26:53.057Z,8.23
2022-12-28T09:29:21.682Z,11.20
2022-12-28T09:31:49.910Z,8.50
2022-12-28T09:34:36.810Z,9.50
2022-12-28T09:37:06.370Z,8.60
2022-12-28T09:39:36.145Z,8.20
2022-12-28T09:42:10.558Z,9.83
2022-12-28T09:44:48.645Z,7.07
2022-12-28T09:47:25.761Z,10.63
2022-12-28T09:50:06.267Z,11.90
2022-12-28T09:52:37.674Z,8.83
2022-12-28T09:55:13.401Z,10.73
2022-12-28T09:57:44.687Z,8.00
2022-12-28T10:00:19.127Z,14.97
2022-12-28T10:02:50.917Z,11.40
2022-12-28T10:05:21.763Z,11.60
2022-12-28T10:07:50.650Z,8.73
2022-12-28T10:10:23.426Z,7.53
2022-12-28T10:12:52.554Z,9.13
2022-12-28T10:15:23.941Z,7.60
2022-12-28T10:17:52.462Z,8.27
2022-12-28T10:20:22.923Z,6.47
2022-12-28T10:22:55.315Z,8.27
2022-12-28T10:25:26.688Z,5.87
2022-12-28T10:27:56.189Z,5.67
2022-12-28T10:30:27.317Z,7.37
2022-12-28T10:33:02.448Z,7.10
2022-12-28T10:35:36.854Z,6.37
2022-12-28T10:38:19.854Z,6.50
2022-12-28T10:40:58.114Z,8.23
2022-12-28T10:43:29.958Z,14.73
2022-12-28T10:46:00.341Z,7.93
2022-12-28T10:48:32.253Z,8.37
2022-12-28T10:51:12.364Z,5.83
2022-12-28T10:53:44.614Z,8.10
2022-12-28T10:56:26.385Z,7.17
2022-12-28T10:58:56.155Z,5.30
2022-12-28T11:01:29.885Z,10.30
2022-12-28T11:04:07.427Z,8.00
2022-12-28T11:06:37.185Z,10.03
2022-12-28T11:09:17.376Z,8.33
2022-12-28T11:11:48.896Z,9.07
2022-12-28T11:14:26.243Z,7.47
2022-12-28T11:16:54.700Z,7.07
2022-12-28T11:19:24.867Z,6.30
2022-12-28T11:21:53.735Z,8.57
2022-12-28T11:24:28.267Z,11.93
2022-12-28T11:26:59.278Z,5.63
2022-12-28T11:29:27.554Z,7.63
2022-12-28T11:32:01.131Z,7.60
2022-12-28T11:34:32.421Z,6.77
2022-12-28T11:37:01.482Z,7.93
2022-12-28T11:39:43.390Z,6.67
2022-12-28T11:45:04.457Z,11.27
2022-12-28T11:47:34.268Z,11.10
2022-12-28T11:50:39.678Z,9.40
2022-12-28T11:53:23.455Z,8.70
2022-12-28T11:56:06.331Z,9.23
2022-12-28T11:59:16.011Z,6.70
2022-12-28T12:01:50.379Z,5.40
2022-12-28T12:04:40.751Z,8.73
2022-12-28T12:07:16.948Z,8.53
2022-12-28T12:09:47.811Z,8.80
2022-12-28T12:12:36.629Z,7.57
2022-12-28T12:15:13.211Z,9.20
2022-12-28T12:17:47.959Z,7.37
2022-12-28T12:20:30.125Z,9.97
2022-12-28T12:23:03.285Z,11.53
2022-12-28T12:25:38.908Z,5.40
2022-12-28T12:28:12.737Z,10.07
2022-12-28T12:30:44.202Z,6.63
2022-12-28T12:33:18.455Z,6.57
2022-12-28T12:36:02.215Z,6.90
2022-12-28T12:38:47.511Z,7.73
2022-12-28T12:41:27.756Z,5.83
2022-12-28T12:44:12.077Z,5.27
2022-12-28T12:47:08.606Z,9.10
2022-12-28T12:50:14.156Z,7.03
2022-12-28T12:52:50.625Z,5.80
2022-12-28T12:55:30.944Z,5.33
2022-12-28T12:58:04.006Z,7.33
2022-12-28T13:00:48.815Z,6.03
2022-12-28T13:03:24.652Z,6.37
2022-12-28T13:05:58.294Z,5.10
2022-12-28T13:08:29.130Z,4.50
2022-12-28T13:10:57.666Z,5.83
2022-12-28T13:13:31.873Z,5.37
2022-12-28T13:16:04.188Z,6.00
2022-12-28T13:18:44.726Z,6.47
2022-12-28T13:21:22.326Z,11.90
2022-12-28T13:23:51.304Z,5.17
2022-12-28T13:26:24.280Z,4.63
2022-12-28T13:28:57.090Z,4.33
2022-12-28T13:31:30.412Z,7.30
2022-12-28T13:34:00.512Z,7.70
2022-12-28T13:36:30.582Z,4.30
2022-12-28T13:39:12.012Z,3.63
2022-12-28T13:41:48.572Z,6.40
2022-12-28T13:44:29.936Z,6.87
2022-12-28T13:47:04.189Z,7.27
2022-12-28T13:49:38.102Z,4.30
2022-12-28T13:52:12.656Z,5.27
2022-12-28T13:54:44.930Z,5.50
2022-12-28T13:57:45.339Z,6.13
2022-12-28T14:00:04.801Z,4.40
2022-12-28T14:02:35.714Z,4.27
2022-12-28T14:05:04.114Z,3.77
2022-12-28T14:07:36.504Z,5.27
2022-12-28T14:10:06.112Z,7.17
2022-12-28T14:12:34.580Z,5.87
2022-12-28T14:15:03.229Z,8.30
2022-12-28T14:17:32.068Z,4.50
2022-12-28T14:20:00.740Z,7.03
2022-12-28T14:22:31.077Z,7.03
2022-12-28T14:25:07.516Z,9.13
2022-12-28T14:27:39.526Z,12.10
2022-12-28T14:30:21.535Z,9.83
2022-12-28T14:32:50.061Z,6.47
2022-12-28T14:35:21.083Z,8.77
2022-12-28T14:37:53.922Z,7.43
2022-12-28T14:40:31.388Z,4.10
2022-12-28T14:43:04.362Z,4.63
2022-12-28T14:48:37.595Z,6.07
2022-12-28T14:51:24.267Z,5.90
2022-12-28T14:54:17.029Z,6.07
2022-12-28T14:56:50.736Z,7.40
2022-12-28T14:59:23.004Z,5.33
2022-12-28T15:00:25.276Z,4.53
2022-12-28T15:01:51.341Z,5.90
2022-12-28T15:04:37.838Z,5.63
2022-12-28T15:07:07.427Z,7.27
2022-12-28T15:09:35.906Z,5.30
2022-12-28T15:12:13.564Z,7.23
2022-12-28T15:14:41.916Z,7.40
2022-12-28T15:17:11.068Z,6.93
2022-12-28T15:19:39.802Z,6.50
2022-12-28T15:22:08.026Z,8.87
2022-12-28T15:24:36.743Z,6.93
2022-12-28T15:27:05.102Z,7.43
2022-12-28T15:32:22.996Z,5.30
2022-12-28T15:34:51.235Z,7.83
2022-12-28T15:37:19.653Z,6.37
2022-12-28T15:39:48.834Z,7.97
2022-12-28T15:42:17.112Z,7.03
2022-12-28T15:44:48.840Z,7.20
2022-12-28T15:47:17.013Z,7.53
2022-12-28T15:49:45.344Z,13.73
2022-12-28T15:52:13.631Z,12.07
2022-12-28T15:54:46.903Z,8.87
2022-12-28T15:57:16.065Z,10.50
2022-12-28T15:59:44.424Z,8.37
2022-12-28T16:02:14.262Z,6.77
2022-12-28T16:04:42.596Z,10.37
2022-12-28T16:07:11.072Z,7.33
2022-12-28T16:09:39.313Z,8.73
2022-12-28T16:12:07.804Z,9.83
2022-12-28T16:14:36.079Z,10.53
2022-12-28T16:17:04.248Z,11.30
2022-12-28T16:19:33.922Z,11.53
2022-12-28T16:22:02.132Z,17.63
2022-12-28T16:24:30.482Z,12.73
2022-12-28T16:26:58.817Z,21.00
2022-12-28T16:29:27.094Z,17.37
2022-12-28T16:31:56.596Z,15.30
2022-12-28T16:34:24.824Z,13.80
2022-12-28T16:36:57.261Z,27.50
2022-12-28T16:39:25.579Z,18.00
2022-12-28T16:41:53.843Z,19.90
2022-12-28T16:44:23.954Z,15.07
2022-12-28T16:46:54.261Z,12.83
2022-12-28T16:49:30.775Z,14.37
2022-12-28T16:52:00.762Z,14.07
2022-12-28T16:54:29.423Z,11.03
2022-12-28T16:56:57.743Z,14.37
2022-12-28T16:59:27.922Z,11.73
2022-12-28T17:01:59.309Z,13.90
2022-12-28T17:04:27.893Z,11.43
2022-12-28T17:06:56.158Z,13.23
2022-12-28T17:09:25.753Z,9.73
2022-12-28T17:11:54.058Z,9.10
2022-12-28T17:14:36.893Z,11.23
2022-12-28T17:17:06.338Z,12.43
2022-12-28T17:19:34.769Z,11.97
2022-12-28T17:22:04.208Z,12.30
2022-12-28T17:24:33.989Z,13.67
2022-12-28T17:27:08.210Z,12.20
2022-12-28T17:29:38.584Z,12.77
2022-12-28T17:32:07.489Z,10.43
2022-12-28T17:34:36.083Z,10.80
2022-12-28T17:37:04.912Z,11.33
2022-12-28T17:39:40.355Z,11.03
2022-12-28T17:42:09.779Z,12.57
2022-12-28T17:44:38.085Z,12.57
2022-12-28T17:47:06.809Z,10.90
2022-12-28T17:49:35.106Z,14.53
2022-12-28T17:52:03.529Z,10.63
2022-12-28T17:54:31.739Z,10.63
2022-12-28T17:57:01.627Z,11.57
2022-12-28T17:59:30.009Z,12.43
2022-12-28T18:01:58.482Z,10.70
2022-12-28T18:04:26.967Z,9.43
2022-12-28T18:06:55.274Z,9.60
2022-12-28T18:09:27.725Z,16.20
2022-12-28T18:11:57.070Z,7.77
2022-12-28T18:14:27.808Z,12.03
2022-12-28T18:16:56.712Z,9.10
2022-12-28T18:19:25.246Z,9.23
2022-12-28T18:21:53.806Z,12.67
2022-12-28T18:24:22.820Z,13.20
2022-12-28T18:26:51.105Z,15.57
2022-12-28T18:29:19.963Z,13.50
2022-12-28T18:31:50.026Z,13.80
2022-12-28T18:34:18.507Z,10.63
2022-12-28T18:36:46.805Z,10.63
2022-12-28T18:39:15.218Z,14.00
2022-12-28T18:41:43.872Z,12.27
2022-12-28T18:44:12.837Z,10.57
2022-12-28T18:46:41.646Z,15.03
2022-12-28T18:49:12.072Z,18.17
2022-12-28T18:51:41.563Z,16.53
2022-12-28T18:54:10.234Z,13.40
2022-12-28T18:56:38.875Z,16.23
2022-12-28T18:59:07.106Z,13.97
2022-12-28T19:04:30.248Z,17.00
2022-12-28T19:06:59.608Z,14.90
2022-12-28T19:09:28.016Z,15.93
2022-12-28T19:11:57.218Z,14.43
2022-12-28T19:14:25.928Z,14.37
2022-12-28T19:16:55.104Z,21.50
2022-12-28T19:19:23.516Z,21.20
2022-12-28T19:21:58.369Z,22.97
2022-12-28T19:24:26.990Z,21.17
2022-12-28T19:26:56.907Z,21.77
2022-12-28T19:29:25.822Z,21.07
2022-12-28T19:31:55.614Z,20.47
2022-12-28T19:34:24.236Z,17.57
2022-12-28T19:36:54.266Z,15.60
2022-12-28T19:39:23.100Z,18.13
2022-12-28T19:41:51.850Z,15.03
2022-12-28T19:44:21.156Z,17.33
2022-12-28T19:46:50.179Z,15.23
2022-12-28T19:49:19.106Z,17.20
2022-12-28T19:51:48.796Z,14.27
2022-12-28T19:54:18.648Z,14.70
2022-12-28T19:56:46.972Z,16.63
2022-12-28T19:59:15.921Z,17.47
2022-12-28T20:01:44.667Z,18.73
2022-12-28T20:04:14.792Z,16.80
2022-12-28T20:06:44.667Z,19.57
2022-12-28T20:09:14.238Z,19.57
2022-12-28T20:11:45.191Z,16.30
2022-12-28T20:14:20.397Z,19.80
2022-12-28T20:16:53.639Z,18.30
2022-12-28T20:19:23.249Z,15.67
2022-12-28T20:21:52.611Z,19.53
2022-12-28T20:24:24.827Z,17.40
2022-12-28T20:27:01.547Z,18.27
2022-12-28T20:29:30.376Z,20.10
2022-12-28T20:31:58.712Z,16.20
2022-12-28T20:34:27.804Z,15.23
2022-12-28T20:36:56.430Z,20.87
2022-12-28T20:39:25.375Z,19.53
2022-12-28T20:42:14.265Z,15.90
2022-12-28T20:44:43.035Z,17.50
2022-12-28T20:47:12.005Z,15.47
2022-12-28T20:49:40.865Z,15.40
2022-12-28T20:52:11.045Z,11.60
2022-12-28T20:54:39.931Z,16.17
2022-12-28T20:57:10.682Z,15.50
2022-12-28T20:59:39.520Z,12.63
2022-12-28T21:02:08.533Z,15.67
2022-12-28T21:04:37.226Z,11.87
2022-12-28T21:07:06.220Z,12.83
2022-12-28T21:09:35.096Z,14.67
2022-12-28T21:12:04.018Z,12.77
2022-12-28T21:14:34.171Z,12.97
2022-12-28T21:17:02.476Z,12.20
2022-12-28T21:19:30.632Z,13.33
2022-12-28T21:21:59.203Z,13.50
2022-12-28T21:24:27.577Z,15.43
2022-12-28T21:26:56.123Z,20.07
2022-12-28T21:29:26.109Z,13.97
2022-12-28T21:31:56.397Z,16.40
2022-12-28T21:34:27.835Z,16.07
2022-12-28T21:36:56.539Z,15.80
2022-12-28T21:39:24.934Z,17.37
2022-12-28T21:41:53.236Z,17.33
2022-12-28T21:44:23.072Z,18.53
2022-12-28T21:46:52.311Z,19.03
2022-12-28T21:49:22.453Z,17.70
2022-12-28T21:51:51.657Z,19.90
2022-12-28T21:54:21.447Z,17.77
2022-12-28T21:56:52.715Z,14.13
2022-12-28T21:59:22.372Z,16.27
2022-12-28T22:02:08.403Z,19.30
2022-12-28T22:05:01.853Z,16.40
2022-12-28T22:07:31.389Z,13.70
2022-12-28T22:10:17.213Z,10.83
2022-12-28T22:12:45.503Z,12.33
2022-12-28T22:15:33.331Z,12.17
2022-12-28T22:18:03.052Z,17.67
2022-12-28T22:20:33.396Z,14.93
2022-12-28T22:23:02.726Z,17.53
2022-12-28T22:25:31.849Z,15.57
2022-12-28T22:28:01.196Z,12.57
2022-12-28T22:30:30.029Z,12.53
2022-12-28T22:32:58.698Z,11.67
2022-12-28T22:35:27.466Z,14.40
2022-12-28T22:37:57.209Z,16.33
2022-12-28T22:40:25.381Z,11.67
2022-12-28T22:42:54.357Z,10.93
2022-12-28T22:45:25.018Z,13.97
2022-12-28T22:47:59.355Z,11.87
2022-12-28T22:50:29.220Z,11.27
2022-12-28T22:52:59.481Z,14.70
2022-12-28T22:55:27.796Z,14.13
2022-12-28T22:57:56.104Z,13.10
2022-12-28T23:00:24.460Z,11.33
2022-12-28T23:02:52.846Z,11.40
2022-12-28T23:05:21.272Z,14.77
2022-12-28T23:07:49.495Z,14.87
2022-12-28T23:10:19.063Z,17.30
2022-12-28T23:12:47.199Z,19.00
2022-12-28T23:15:19.200Z,19.87
2022-12-28T23:17:49.181Z,17.93
2022-12-28T23:20:34.417Z,17.03
2022-12-28T23:23:19.759Z,16.60
2022-12-28T23:26:06.977Z,16.93
2022-12-28T23:28:36.950Z,16.50
2022-12-28T23:31:06.053Z,16.50
2022-12-28T23:33:34.393Z,14.73
2022-12-28T23:36:04.125Z,20.93
2022-12-28T23:38:33.509Z,20.03
2022-12-28T23:41:23.960Z,17.53
2022-12-28T23:43:52.270Z,21.00
2022-12-28T23:46:20.547Z,19.23
2022-12-28T23:48:48.796Z,19.00
2022-12-28T23:51:18.166Z,18.37
2022-12-28T23:53:46.499Z,18.97
2022-12-28T23:56:16.033Z,23.27
2022-12-28T23:58:44.266Z,18.53
